Montrose, CO

2:09 AM MDT on October 21, 2014 (GMT -0600)
Gunnison County | Change Station
CLOSE
Current Station
Airport
Location: Gunnison,
Elevation: 7674 ft
Nearby Weather Stations

Elev 7674 ft 38.53 °N, 106.93 °W | Updated 14 minutes ago

Overcast
Overcast
36 °F
Feels Like 33 °F
N
4
Wind Variable Wind from SE

Today
High -- | Low -- °F
--% Chance of Precip.
Yesterday
High -- | Low -- °F
Precip. -- in
7:26 AM 6:25 PM
Waning Crescent, 7% visible
Pressure 30.27 in
Visibility 10.0 miles
Clouds Mostly Cloudy 9000 ft
Windchill 33 °F
Dew Point 27 °F
Humidity 70%
Rainfall 0.00 in
Snow Depth Not available.
UV 0 out of 12
Pollen 1.80 out of 12
Air Quality Not available.
Flu Activity Sporadic
METAR KGUC 210755Z AUTO 13003KT 10SM BKN090 02/M03 A3027 RMK AO1

More Conditions Fewer Conditions

Pressure 30.27 in
Visibility 10.0 miles
Clouds Mostly Cloudy 9000 ft
Windchill 33 °F
Dew Point 27 °F
Humidity 70%
Rainfall 0.00 in
Snow Depth Not available.
UV 0 out of 12
Pollen 1.80 out of 12
Air Quality Not available.
Flu Activity Sporadic
METAR KGUC 210755Z AUTO 13003KT 10SM BKN090 02/M03 A3027 RMK AO1

More Conditions Fewer Conditions

10-Day Weather Forecast

Almanac

Astronomy

Oct. 21, 2014 Rise Set
Actual Time 7:26 AM MDT 6:25 PM MDT
Civil Twilight 6:59 AM MDT 6:51 PM MDT
Nautical Twilight 6:28 AM MDT 7:22 PM MDT
Astronomical Twilight 5:57 AM MDT 7:53 PM MDT
Moon 5:15 AM MDT 5:19 PM MDT
Length of Visible Light 11h 52m
Length of Day
10h 58m
Tomorrow will be 2m 19s shorter.
Waning Crescent, 7% of the Moon is Illuminated
Today
Waning Crescent
Oct 23
New
Oct 30
First Quarter
Nov 6
Full
Nov 14
Last Quarter

Today's Extremes

State Highs State Lows

Community

WunderPhotos

Upload Photos

1,763,619 photos uploaded!

Nearby

Snow Depth

Station Depth Elevation
Columbine Pass 0 in 9400 ft
Idarado 0 in 9800 ft
Red Mountain Pass 0 in 11150 ft
Lone Cone 3 in 9600 ft
Mineral Creek 0 in 10040 ft

Earthquake Activity

City Distance Mag. Time & Date
No recent earthquake activity has been reported nearby.
Minimum magnitude displayed is 2.5.

Coastal Water Temperatures

Place Temperature
No Stations Reporting

Nearby Weather Stations